Time;durP1;ratioP1;P1;durP2;ratioP2;P2;SDS_P1;SDS_P2;PMS_P1;PMS_P2;Temp;Humidity;BMP_temperature;BMP_pressure;BME280_temperature;BME280_humidity;BME280_pressure;Samples;Min_cycle;Max_cycle;Signal;HPM_P1;HPM_P2
2022/08/27 00:01:22;;;;;;;11.03;2.40;;;;;;;15.70;79.02;101894.59;5090127;28;20052;-78
2022/08/27 00:03:48;;;;;;;6.20;2.20;;;;;;;15.72;79.12;101909.03;5089209;28;20287;-77
2022/08/27 00:06:16;;;;;;;7.68;2.20;;;;;;;15.73;78.82;101907.97;5071389;28;20126;-77
2022/08/27 00:08:42;;;;;;;9.65;2.35;;;;;;;15.69;79.04;101898.41;5066753;28;20376;-77
2022/08/27 00:11:08;;;;;;;;;;;;;;;15.65;79.32;101899.88;5083576;28;20077;-77
2022/08/27 00:13:35;;;;;;;8.75;2.63;;;;;;;15.54;79.33;101889.41;5070955;28;19951;-78
2022/08/27 00:16:02;;;;;;;4.30;2.00;;;;;;;15.62;79.46;101892.00;5089113;28;20040;-77
2022/08/27 00:18:27;;;;;;;8.85;2.40;;;;;;;15.60;79.85;101888.59;5055146;28;20040;-76
2022/08/27 00:20:52;;;;;;;6.27;2.47;;;;;;;15.55;79.48;101891.97;5069451;28;20054;-78
2022/08/27 00:23:18;;;;;;;9.80;2.67;;;;;;;15.49;79.64;101884.50;5071451;28;20028;-76
2022/08/27 00:25:45;;;;;;;6.23;2.63;;;;;;;15.48;79.17;101882.78;5089464;28;20055;-78
2022/08/27 00:28:10;;;;;;;;;;;;;;;15.52;80.04;101884.09;5058835;28;20067;-77
2022/08/27 00:30:35;;;;;;;7.43;2.25;;;;;;;15.48;79.72;101881.94;5088402;28;19915;-78
2022/08/27 00:33:03;;;;;;;7.17;2.27;;;;;;;15.46;79.40;101892.31;5067825;28;20070;-77
2022/08/27 00:35:28;;;;;;;4.45;2.38;;;;;;;15.48;79.65;101884.72;5070059;28;20046;-78
2022/08/27 00:37:53;;;;;;;6.07;2.37;;;;;;;15.48;79.73;101891.06;5088640;28;20028;-77
2022/08/27 00:40:20;;;;;;;8.10;2.57;;;;;;;15.49;80.14;101891.94;5087427;28;20028;-78
2022/08/27 00:42:46;;;;;;;;;;;;;;;15.46;79.90;101892.31;5089248;28;20032;-77
2022/08/27 00:45:14;;;;;;;8.45;2.30;;;;;;;15.42;80.45;101893.81;5069166;28;20429;-78
2022/08/27 00:47:44;;;;;;;8.13;2.85;;;;;;;15.41;80.54;101894.84;5070600;28;20097;-79
2022/08/27 00:50:13;;;;;;;7.68;2.53;;;;;;;15.39;80.75;101889.53;5070889;28;20039;-78
2022/08/27 00:52:50;;;;;;;16.50;2.80;;;;;;;15.43;80.36;101892.75;5088868;28;20035;-78
2022/08/27 00:55:20;;;;;;;10.37;2.53;;;;;;;15.42;80.93;101891.88;5071696;28;20494;-77
2022/08/27 00:58:06;;;;;;;11.95;3.13;;;;;;;15.52;80.41;101886.00;5071258;28;20475;-78
2022/08/27 01:00:31;;;;;;;9.35;2.25;;;;;;;15.46;80.27;101897.84;5091591;28;20056;-78
2022/08/27 01:02:57;;;;;;;6.63;2.43;;;;;;;15.50;80.46;101899.16;5091676;28;20074;-76
2022/08/27 01:05:24;;;;;;;4.80;1.90;;;;;;;15.49;80.47;101886.41;5073628;28;20198;-78
2022/08/27 01:07:54;;;;;;;6.85;2.42;;;;;;;15.55;80.58;101891.97;5073285;28;20376;-78
2022/08/27 01:10:23;;;;;;;9.75;2.13;;;;;;;15.56;79.85;101888.16;5088629;28;20372;-77
2022/08/27 01:12:52;;;;;;;8.65;2.60;;;;;;;15.67;80.05;101892.22;5091656;28;20024;-76
2022/08/27 01:15:20;;;;;;;7.50;2.28;;;;;;;15.72;79.63;101893.34;5073505;28;20059;-77
2022/08/27 01:17:47;;;;;;;7.57;2.42;;;;;;;15.74;79.32;101880.16;5091930;28;20097;-77
2022/08/27 01:20:28;;;;;;;8.57;2.30;;;;;;;15.79;79.41;101872.09;5073680;28;20036;-78
2022/08/27 01:23:08;;;;;;;8.38;2.28;;;;;;;15.88;78.63;101883.81;5073671;28;20064;-77
2022/08/27 01:25:36;;;;;;;8.07;2.40;;;;;;;15.86;78.72;101881.25;5090094;28;20032;-77
2022/08/27 01:28:05;;;;;;;7.53;2.25;;;;;;;15.84;79.04;101890.84;5072735;28;20062;-77
2022/08/27 01:30:33;;;;;;;4.50;2.05;;;;;;;15.83;78.88;101887.22;5086433;28;20089;-77
2022/08/27 01:32:59;;;;;;;8.18;2.40;;;;;;;15.75;79.63;101886.53;5091917;28;20085;-77
2022/08/27 01:35:29;;;;;;;5.63;2.03;;;;;;;15.67;79.91;101886.69;5089857;28;20040;-79
2022/08/27 01:37:55;;;;;;;10.75;2.88;;;;;;;15.63;79.56;101879.91;5072240;28;20044;-78
2022/08/27 01:40:21;;;;;;;6.33;2.60;;;;;;;15.56;79.93;101879.00;5090522;28;20028;-78
2022/08/27 01:42:50;;;;;;;5.33;2.03;;;;;;;15.58;79.48;101885.19;5088318;28;20020;-79
2022/08/27 01:45:29;;;;;;;8.02;2.33;;;;;;;15.53;80.46;101885.78;5072498;28;20031;-78
2022/08/27 01:47:56;;;;;;;7.90;2.42;;;;;;;15.48;80.82;101876.41;5090722;28;20090;-77
2022/08/27 01:50:26;;;;;;;7.60;2.92;;;;;;;15.44;81.00;101884.28;5090890;28;20089;-79
2022/08/27 01:52:53;;;;;;;8.55;2.15;;;;;;;15.48;81.56;101873.66;5055594;28;20032;-77
2022/08/27 01:55:22;;;;;;;4.80;1.90;;;;;;;15.41;81.42;101878.28;5071033;28;20491;-79
2022/08/27 01:57:47;;;;;;;3.70;1.80;;;;;;;15.37;81.14;101875.06;5090006;28;20067;-78
2022/08/27 02:00:24;;;;;;;7.80;1.97;;;;;;;15.36;81.89;101878.06;5091724;28;20078;-78
2022/08/27 02:02:50;;;;;;;9.20;1.97;;;;;;;15.34;81.85;101872.72;5091146;28;20064;-78
2022/08/27 02:05:16;;;;;;;4.87;2.37;;;;;;;15.36;81.75;101878.06;5056902;28;20087;-78
2022/08/27 02:07:43;;;;;;;7.25;1.73;;;;;;;15.22;82.16;101873.47;5085277;28;20066;-76
2022/08/27 02:10:10;;;;;;;6.00;2.15;;;;;;;15.28;81.58;101873.50;5089464;28;20478;-77
2022/08/27 02:12:36;;;;;;;6.03;2.28;;;;;;;15.32;81.63;101880.31;5091068;28;20055;-77
2022/08/27 02:15:03;;;;;;;7.53;1.70;;;;;;;15.34;81.07;101869.97;5072386;28;20040;-77
2022/08/27 02:17:29;;;;;;;5.10;2.00;;;;;;;15.32;80.88;101865.69;5091153;28;20128;-77
2022/08/27 02:19:55;;;;;;;5.10;1.60;;;;;;;15.34;81.04;101877.38;5090159;28;20050;-77
2022/08/27 02:22:21;;;;;;;6.18;1.80;;;;;;;15.43;80.84;101871.50;5089954;28;20329;-77
2022/08/27 02:24:47;;;;;;;6.83;1.73;;;;;;;15.46;80.49;101873.00;5089116;28;20040;-76
2022/08/27 02:27:12;;;;;;;7.18;1.60;;;;;;;15.48;80.50;101865.38;5089681;28;20051;-76
2022/08/27 02:29:38;;;;;;;3.90;1.87;;;;;;;15.56;80.01;101859.66;5089756;28;20530;-75
2022/08/27 02:32:04;;;;;;;7.13;2.13;;;;;;;15.58;79.79;101872.22;5090281;28;20162;-76
2022/08/27 02:34:29;;;;;;;5.70;2.00;;;;;;;15.60;79.66;101869.25;5071346;28;20027;-76
2022/08/27 02:36:54;;;;;;;8.97;1.90;;;;;;;15.54;79.64;101862.63;5054981;28;20411;-77
2022/08/27 02:39:21;;;;;;;6.40;1.67;;;;;;;15.56;79.24;101867.94;5068144;28;20120;-77
2022/08/27 02:41:47;;;;;;;10.68;2.50;;;;;;;15.52;79.62;101863.91;5067516;28;20039;-79
2022/08/27 02:44:13;;;;;;;5.63;1.80;;;;;;;15.46;79.78;101854.53;5062099;28;20039;-79
2022/08/27 02:46:38;;;;;;;3.53;1.60;;;;;;;15.39;80.07;101852.78;5071559;28;20028;-78
2022/08/27 02:49:04;;;;;;;4.73;1.67;;;;;;;15.40;80.15;101852.59;5089626;28;20055;-76
2022/08/27 02:51:29;;;;;;;8.13;2.63;;;;;;;15.41;80.40;101853.41;5071138;28;20536;-78
2022/08/27 02:53:55;;;;;;;4.10;2.00;;;;;;;15.29;80.47;101852.25;5088901;28;20063;-78
2022/08/27 02:56:20;;;;;;;7.43;2.30;;;;;;;15.22;81.06;101848.63;5090672;28;20028;-78
2022/08/27 02:58:45;;;;;;;9.40;2.10;;;;;;;15.18;81.21;101856.47;5090459;28;20039;-77
2022/08/27 03:01:11;;;;;;;12.07;2.23;;;;;;;15.28;80.36;101858.84;5071078;28;20349;-76
2022/08/27 03:03:37;;;;;;;12.93;1.80;;;;;;;15.28;80.64;101856.94;5087565;28;20107;-77
2022/08/27 03:06:03;;;;;;;4.82;1.75;;;;;;;15.26;81.44;101848.00;5071337;28;20506;-78
2022/08/27 03:08:29;;;;;;;7.67;1.80;;;;;;;15.26;80.48;101852.69;5088644;28;20031;-78
2022/08/27 03:10:55;;;;;;;10.00;2.23;;;;;;;15.22;80.84;101852.22;5070755;28;20109;-78
2022/08/27 03:13:21;;;;;;;6.25;1.77;;;;;;;15.19;80.98;101852.63;5070897;28;20028;-78
2022/08/27 03:15:47;;;;;;;4.78;1.65;;;;;;;15.12;81.39;101849.00;5072471;28;20416;-78
2022/08/27 03:18:18;;;;;;;4.27;1.80;;;;;;;15.13;81.41;101841.53;5083652;28;20024;-78
2022/08/27 03:21:02;;;;;;;7.30;1.65;;;;;;;15.08;81.26;101849.56;5071127;28;20499;-78
2022/08/27 03:23:32;;;;;;;6.78;1.85;;;;;;;15.02;82.17;101850.38;5070816;28;20028;-77
2022/08/27 03:26:00;;;;;;;5.82;1.65;;;;;;;15.07;81.98;101854.25;5088255;28;20047;-77
2022/08/27 03:28:29;;;;;;;3.20;1.67;;;;;;;15.05;82.09;101852.75;5071747;28;20118;-78
2022/08/27 03:30:59;;;;;;;5.90;2.03;;;;;;;14.98;82.44;101854.59;5069325;28;20172;-78
2022/08/27 03:33:25;;;;;;;6.82;1.90;;;;;;;14.90;81.95;101854.75;5071214;28;20108;-78
2022/08/27 03:35:51;;;;;;;7.88;1.75;;;;;;;14.76;82.67;101851.06;5071722;28;20031;-78
2022/08/27 03:38:16;;;;;;;6.87;2.00;;;;;;;14.76;83.47;101847.44;5070574;28;20044;-78
2022/08/27 03:40:42;;;;;;;4.90;1.87;;;;;;;14.68;82.90;101850.34;5068571;28;20028;-78
2022/08/27 03:43:11;;;;;;;6.50;2.10;;;;;;;14.64;83.31;101847.16;5088447;28;20035;-77
2022/08/27 03:45:36;;;;;;;3.70;1.55;;;;;;;14.62;83.92;101849.22;5076948;28;20035;-77
2022/08/27 03:48:03;;;;;;;8.13;2.53;;;;;;;14.60;83.38;101847.72;5054953;28;20031;-78
2022/08/27 03:50:28;;;;;;;15.60;3.13;;;;;;;14.54;83.34;101854.03;5088499;28;20024;-78
2022/08/27 03:52:53;;;;;;;9.90;2.10;;;;;;;14.47;83.13;101845.69;5088804;28;20479;-78
2022/08/27 03:55:19;;;;;;;4.77;1.70;;;;;;;14.39;83.39;101844.97;5085733;28;20032;-78
2022/08/27 03:57:44;;;;;;;5.80;2.27;;;;;;;14.44;84.37;101846.09;5087252;28;20424;-77
2022/08/27 04:00:12;;;;;;;8.67;1.80;;;;;;;14.30;84.32;101841.50;5088544;28;20039;-77
2022/08/27 04:02:37;;;;;;;6.32;2.25;;;;;;;14.29;84.59;101841.69;5070636;28;20084;-78
2022/08/27 04:05:05;;;;;;;6.73;2.67;;;;;;;14.37;85.16;101838.81;5087408;28;20016;-78
2022/08/27 04:07:31;;;;;;;6.10;2.17;;;;;;;14.32;83.98;101847.69;5070256;28;20028;-78
2022/08/27 04:09:57;;;;;;;8.50;1.88;;;;;;;14.29;84.50;101839.81;5088778;28;20042;-77
2022/08/27 04:12:23;;;;;;;4.80;2.17;;;;;;;14.27;84.81;101841.06;5088445;28;20487;-78
2022/08/27 04:14:48;;;;;;;5.53;1.90;;;;;;;14.16;85.63;101841.53;5075071;28;20118;-77
2022/08/27 04:17:13;;;;;;;9.50;2.17;;;;;;;14.14;85.43;101849.16;5091357;28;20048;-78
2022/08/27 04:19:39;;;;;;;6.53;1.90;;;;;;;14.16;85.22;101849.81;5069705;28;20032;-78
2022/08/27 04:22:05;;;;;;;7.13;3.10;;;;;;;14.16;85.38;101853.44;5089467;28;20471;-78
2022/08/27 04:24:33;;;;;;;6.15;1.67;;;;;;;14.07;85.06;101857.34;5069029;28;20028;-78
2022/08/27 04:26:59;;;;;;;5.20;1.75;;;;;;;14.08;85.66;101855.47;5071878;28;20043;-78
2022/08/27 04:29:25;;;;;;;6.78;2.00;;;;;;;14.07;85.49;101853.72;5069610;28;20024;-78
2022/08/27 04:31:51;;;;;;;5.37;1.70;;;;;;;14.02;86.02;101853.47;5087334;28;20036;-77
2022/08/27 04:34:17;;;;;;;8.83;1.90;;;;;;;13.97;86.28;101855.94;5092191;28;20032;-77
2022/08/27 04:36:42;;;;;;;5.20;2.10;;;;;;;13.97;85.78;101853.19;5073169;28;20048;-78
2022/08/27 04:39:09;;;;;;;8.50;2.17;;;;;;;13.97;85.52;101859.56;5072364;28;20205;-77
2022/08/27 04:41:34;;;;;;;4.63;1.60;;;;;;;13.90;85.52;101855.03;5088801;28;20039;-78
2022/08/27 04:44:08;;;;;;;7.40;2.50;;;;;;;13.89;86.21;101859.69;5090859;28;20020;-78
2022/08/27 04:46:38;;;;;;;3.70;2.45;;;;;;;13.88;87.15;101865.41;5074091;28;20078;-77
2022/08/27 04:49:10;;;;;;;4.15;1.55;;;;;;;13.84;85.98;101875.09;5091825;28;20085;-78
2022/08/27 04:51:38;;;;;;;7.05;2.10;;;;;;;13.76;86.22;101861.44;5069725;28;20033;-77
2022/08/27 04:54:06;;;;;;;7.80;2.22;;;;;;;13.83;85.99;101867.88;5063236;28;20055;-77
2022/08/27 04:56:33;;;;;;;4.32;1.55;;;;;;;13.82;86.37;101868.94;5091741;28;20500;-77
2022/08/27 04:58:58;;;;;;;3.63;1.90;;;;;;;13.82;86.35;101867.00;5053945;28;20055;-78
2022/08/27 05:01:26;;;;;;;3.87;1.57;;;;;;;13.82;86.27;101867.00;5069627;28;20091;-78
2022/08/27 05:03:53;;;;;;;8.40;2.38;;;;;;;13.83;87.05;101856.84;5078602;28;20119;-78
2022/08/27 05:06:19;;;;;;;5.13;2.40;;;;;;;13.88;85.44;101863.47;5084136;28;20040;-78
2022/08/27 05:08:46;;;;;;;6.38;2.55;;;;;;;13.84;86.57;101867.69;5092194;28;20123;-77
2022/08/27 05:11:14;;;;;;;6.60;3.17;;;;;;;13.89;86.28;101870.72;5071919;28;20464;-77
2022/08/27 05:13:41;;;;;;;5.40;3.30;;;;;;;13.83;85.91;101867.88;5071506;28;20452;-77
2022/08/27 05:16:09;;;;;;;9.68;2.65;;;;;;;13.93;86.68;101874.75;5054834;28;20107;-77
2022/08/27 05:18:36;;;;;;;4.60;2.63;;;;;;;13.94;87.17;101870.97;5071321;28;20036;-78
2022/08/27 05:21:03;;;;;;;4.68;2.58;;;;;;;13.97;87.35;101878.84;5072627;28;20047;-77
2022/08/27 05:23:28;;;;;;;8.07;2.22;;;;;;;14.07;86.81;101875.78;5071773;28;20044;-77
2022/08/27 05:25:55;;;;;;;11.07;2.67;;;;;;;14.02;86.26;101875.50;5055081;28;20039;-78
2022/08/27 05:28:22;;;;;;;10.50;2.80;;;;;;;14.02;86.44;101876.38;5088690;28;20034;-77
2022/08/27 05:30:51;;;;;;;5.65;2.33;;;;;;;14.05;85.84;101861.34;5089214;28;20123;-78
2022/08/27 05:33:20;;;;;;;7.53;2.50;;;;;;;14.10;86.08;101872.63;5072461;28;20031;-77
2022/08/27 05:35:49;;;;;;;4.95;2.25;;;;;;;14.17;86.51;101874.44;5090119;28;20603;-78
2022/08/27 05:38:15;;;;;;;9.35;2.97;;;;;;;14.25;86.16;101885.34;5070413;28;20489;-78
2022/08/27 05:40:42;;;;;;;11.80;3.78;;;;;;;14.30;86.16;101874.59;5086934;28;20036;-77
2022/08/27 05:43:08;;;;;;;;;;;;;;;14.36;86.11;101881.22;5070142;28;20032;-80
2022/08/27 05:45:40;;;;;;;6.20;2.65;;;;;;;14.48;85.65;101879.66;5073237;28;20453;-78
2022/08/27 05:48:06;;;;;;;7.95;3.13;;;;;;;14.62;85.83;101876.81;5055521;28;20388;-79
2022/08/27 05:50:32;;;;;;;7.87;2.20;;;;;;;14.70;85.88;101873.94;5087238;28;20028;-78
2022/08/27 05:52:58;;;;;;;4.60;2.53;;;;;;;14.80;85.36;101879.09;5072691;28;20265;-78
2022/08/27 05:55:23;;;;;;;6.53;2.10;;;;;;;14.86;85.26;101872.75;5089707;28;20463;-78
2022/08/27 05:57:50;;;;;;;5.07;2.67;;;;;;;14.92;85.36;101870.06;5090125;28;20039;-79
2022/08/27 06:02:59;;;;;;;5.63;2.10;;;;;;;15.10;85.00;101872.34;5086121;28;20256;-78
2022/08/27 06:05:24;;;;;;;3.73;1.97;;;;;;;15.20;84.84;101872.81;5070509;28;20020;-78
2022/08/27 06:07:50;;;;;;;8.77;2.77;;;;;;;15.27;84.45;101871.78;5072386;28;20094;-78
2022/08/27 06:10:15;;;;;;;3.67;1.57;;;;;;;15.40;83.61;101863.63;5089228;28;20032;-78
2022/08/27 06:12:40;;;;;;;7.97;1.90;;;;;;;15.50;83.00;101866.88;5073444;28;20036;-77
2022/08/27 06:15:06;;;;;;;6.10;1.90;;;;;;;15.66;83.04;101876.72;5092018;28;20487;-75
2022/08/27 06:17:32;;;;;;;5.90;1.70;;;;;;;15.66;83.12;101868.44;5072914;28;20356;-78
2022/08/27 06:19:57;;;;;;;10.83;1.93;;;;;;;15.86;81.97;101855.56;5098360;28;20097;-77
2022/08/27 06:22:23;;;;;;;9.73;1.80;;;;;;;15.89;81.71;101861.53;5090809;28;20024;-77
2022/08/27 06:24:48;;;;;;;9.50;2.23;;;;;;;16.03;81.52;101867.94;5071289;28;20085;-79
2022/08/27 06:27:16;;;;;;;7.07;2.70;;;;;;;16.16;80.51;101870.75;5070186;28;20043;-78
2022/08/27 06:29:42;;;;;;;6.43;2.05;;;;;;;16.33;80.55;101874.84;5066628;28;20028;-78
2022/08/27 06:32:08;;;;;;;4.57;1.70;;;;;;;16.60;79.28;101871.91;5080824;28;20059;-78
2022/08/27 06:34:34;;;;;;;5.22;1.90;;;;;;;16.79;79.13;101873.84;5079818;28;20036;-79
2022/08/27 06:37:00;;;;;;;5.30;1.75;;;;;;;17.02;78.58;101865.13;5088270;28;20437;-75
2022/08/27 06:39:25;;;;;;;10.03;1.90;;;;;;;17.19;76.79;101869.97;5067256;28;20028;-77
2022/08/27 06:41:51;;;;;;;4.93;1.80;;;;;;;17.47;76.44;101861.44;5071353;28;20137;-75
2022/08/27 06:44:17;;;;;;;7.70;2.05;;;;;;;17.72;75.63;101868.81;5087059;28;20028;-77
2022/08/27 06:46:43;;;;;;;4.87;2.10;;;;;;;17.91;74.74;101865.09;5082964;28;20532;-74
2022/08/27 06:49:10;;;;;;;7.43;1.93;;;;;;;18.06;73.04;101868.44;5088841;28;20139;-75
2022/08/27 06:51:37;;;;;;;10.82;2.53;;;;;;;18.20;74.02;101866.47;5070254;28;20028;-75
2022/08/27 06:54:07;;;;;;;10.98;2.25;;;;;;;18.14;71.91;101873.72;5086775;28;20031;-75
2022/08/27 06:56:33;;;;;;;6.28;1.92;;;;;;;18.15;73.46;101872.66;5066843;28;20510;-76
2022/08/27 06:59:01;;;;;;;9.25;3.65;;;;;;;18.22;71.18;101872.63;5087583;28;20088;-78
2022/08/27 07:01:32;;;;;;;9.60;2.65;;;;;;;18.23;71.15;101875.19;5124685;28;20035;-78
2022/08/27 07:03:59;;;;;;;7.70;2.90;;;;;;;18.36;71.08;101866.78;5101498;28;20008;-77
2022/08/27 07:06:27;;;;;;;7.45;3.03;;;;;;;18.35;70.92;101878.16;5104712;28;20255;-78
2022/08/27 07:08:52;;;;;;;4.25;2.55;;;;;;;18.40;71.16;101872.78;5104361;28;20482;-76
2022/08/27 07:11:17;;;;;;;6.07;2.80;;;;;;;18.46;71.07;101880.19;5089128;28;20520;-77
2022/08/27 07:13:46;;;;;;;5.80;1.90;;;;;;;18.61;71.32;101880.72;5090450;28;20103;-77
2022/08/27 07:16:17;;;;;;;11.00;3.10;;;;;;;18.49;70.96;101874.19;5090110;28;20409;-79
2022/08/27 07:18:43;;;;;;;10.20;3.22;;;;;;;18.61;70.51;101869.59;5074875;28;20048;-78
2022/08/27 07:21:10;;;;;;;5.05;2.85;;;;;;;18.60;70.47;101881.78;5074005;28;20036;-77
2022/08/27 07:23:36;;;;;;;12.27;3.10;;;;;;;18.65;70.60;101882.84;5070171;28;20077;-78
2022/08/27 07:26:06;;;;;;;9.35;3.25;;;;;;;18.67;70.88;101883.44;5109349;28;20058;-78
2022/08/27 07:28:32;;;;;;;9.57;3.30;;;;;;;18.79;70.15;101878.03;5098076;28;20058;-78
2022/08/27 07:30:57;;;;;;;8.57;3.30;;;;;;;18.94;70.84;101884.09;5076161;28;20119;-77
2022/08/27 07:33:24;;;;;;;8.47;3.07;;;;;;;18.95;70.30;101883.84;5085052;28;20505;-78
2022/08/27 07:35:50;;;;;;;8.50;3.15;;;;;;;18.94;70.12;101884.09;5083842;28;20107;-77
2022/08/27 07:38:16;;;;;;;;;;;;;;;18.81;70.60;101890.63;5081137;28;20080;-76
2022/08/27 07:40:41;;;;;;;9.35;3.10;;;;;;;18.88;70.89;101893.34;5089924;28;20397;-76
2022/08/27 07:45:54;;;;;;;7.55;2.60;;;;;;;18.90;71.28;101891.19;5090092;28;20073;-76
2022/08/27 07:48:22;;;;;;;9.95;4.10;;;;;;;18.95;71.04;101896.91;5071625;28;20119;-76
2022/08/27 07:50:47;;;;;;;13.15;3.53;;;;;;;19.04;71.13;101895.56;5081395;28;20027;-78
2022/08/27 07:53:12;;;;;;;6.73;3.13;;;;;;;18.99;71.42;101904.56;5076656;28;20036;-77
2022/08/27 07:55:38;;;;;;;5.37;2.67;;;;;;;19.07;71.36;101909.84;5083519;28;20024;-77
2022/08/27 07:58:04;;;;;;;8.57;3.47;;;;;;;19.08;71.09;101902.34;5078816;28;20024;-78
2022/08/27 08:00:30;;;;;;;10.20;3.78;;;;;;;18.97;70.97;101905.84;5065240;28;20028;-77
2022/08/27 08:02:56;;;;;;;9.00;3.60;;;;;;;19.06;70.95;101916.44;5087523;28;20036;-77
2022/08/27 08:05:21;;;;;;;6.53;2.93;;;;;;;19.17;71.38;101926.00;5070908;28;20080;-77
2022/08/27 08:07:46;;;;;;;8.47;3.03;;;;;;;19.31;70.97;101917.31;5084672;28;20040;-77
2022/08/27 08:10:12;;;;;;;12.40;3.43;;;;;;;19.34;70.23;101921.59;5090997;28;20020;-79
2022/08/27 08:12:39;;;;;;;12.77;3.37;;;;;;;19.40;70.25;101915.09;5090900;28;20024;-78
2022/08/27 08:15:07;;;;;;;13.02;3.47;;;;;;;19.42;70.51;101922.13;5086950;28;20111;-77
2022/08/27 08:17:36;;;;;;;6.13;3.33;;;;;;;19.54;69.95;101922.25;5067681;28;20047;-77
2022/08/27 08:20:04;;;;;;;11.27;3.42;;;;;;;19.69;70.18;101925.50;5071944;28;20058;-78
2022/08/27 08:22:29;;;;;;;7.22;3.30;;;;;;;19.69;69.51;101918.00;5071452;28;20025;-78
2022/08/27 08:24:55;;;;;;;7.97;2.97;;;;;;;19.83;69.57;101933.47;5086936;28;20347;-78
2022/08/27 08:27:20;;;;;;;12.20;3.87;;;;;;;19.76;69.69;101924.34;5088904;28;20020;-78
2022/08/27 08:29:47;;;;;;;9.20;3.20;;;;;;;20.00;68.49;101928.97;5068114;28;20480;-77
2022/08/27 08:32:12;;;;;;;;;;;;;;;20.12;68.52;101931.88;5091570;28;20024;-77
2022/08/27 08:34:37;;;;;;;6.40;2.97;;;;;;;19.97;67.93;101931.38;5089245;28;19916;-76
2022/08/27 08:37:04;;;;;;;8.00;3.10;;;;;;;20.20;67.71;101934.31;5088595;28;20020;-78
2022/08/27 08:39:30;;;;;;;7.18;3.13;;;;;;;20.27;67.44;101930.38;5082736;28;20426;-78
2022/08/27 08:41:59;;;;;;;7.00;2.90;;;;;;;20.55;66.80;101927.00;5087931;28;20028;-78
2022/08/27 08:44:33;;;;;;;8.40;3.08;;;;;;;20.50;66.67;101932.41;5090453;28;20036;-78
2022/08/27 08:47:03;;;;;;;14.23;3.30;;;;;;;20.34;66.44;101935.84;5089788;28;20027;-77
2022/08/27 08:49:45;;;;;;;8.52;2.67;;;;;;;20.37;66.26;101930.66;5087673;28;20506;-77
2022/08/27 08:52:25;;;;;;;9.82;2.95;;;;;;;20.53;65.20;101940.28;5070855;28;20105;-77
2022/08/27 08:54:55;;;;;;;7.70;3.08;;;;;;;20.87;64.44;101947.94;5090581;28;20036;-77
2022/08/27 08:57:25;;;;;;;11.20;3.20;;;;;;;21.28;63.43;101942.34;5084331;28;20024;-78
2022/08/27 09:00:00;;;;;;;7.97;2.72;;;;;;;21.10;62.93;101939.66;5066182;28;20344;-78
2022/08/27 09:02:26;;;;;;;9.20;2.28;;;;;;;21.19;61.99;101938.22;5085480;28;20455;-77
2022/08/27 09:04:52;;;;;;;9.83;2.83;;;;;;;21.10;62.04;101948.00;5084487;28;20102;-77
2022/08/27 09:07:33;;;;;;;12.57;3.22;;;;;;;21.18;62.41;101942.09;5087559;28;20478;-76
2022/08/27 09:10:08;;;;;;;5.88;2.53;;;;;;;21.21;61.20;101936.88;5065159;28;20544;-78
2022/08/27 09:12:33;;;;;;;8.70;2.85;;;;;;;21.15;61.27;101939.78;5085470;28;20113;-77
2022/08/27 09:15:13;;;;;;;11.17;2.70;;;;;;;21.51;60.82;101939.56;5092085;28;20051;-77
2022/08/27 09:17:40;;;;;;;9.27;2.72;;;;;;;21.87;59.34;101944.94;5093201;28;20032;-77
2022/08/27 09:20:07;;;;;;;9.35;2.53;;;;;;;22.16;56.79;101946.69;5090500;28;20036;-77
2022/08/27 09:22:45;;;;;;;9.90;2.63;;;;;;;22.65;56.24;101946.03;5085900;28;20036;-77
2022/08/27 09:25:21;;;;;;;6.95;2.40;;;;;;;22.63;56.01;101937.09;5087319;28;20051;-77
2022/08/27 09:27:50;;;;;;;4.35;2.45;;;;;;;22.52;56.16;101946.38;5095319;28;20036;-77
2022/08/27 09:30:24;;;;;;;5.03;2.20;;;;;;;22.52;55.30;101933.22;5090368;28;20537;-77
2022/08/27 09:32:58;;;;;;;4.97;2.17;;;;;;;22.70;54.78;101946.16;5089737;28;20093;-78
2022/08/27 09:35:26;;;;;;;8.15;2.78;;;;;;;22.25;54.41;101950.78;5092017;28;20032;-77
2022/08/27 09:37:54;;;;;;;6.30;2.38;;;;;;;22.49;54.53;101947.69;5093177;28;20507;-77
2022/08/27 09:40:30;;;;;;;5.43;1.90;;;;;;;22.11;55.53;101946.56;5074818;28;20036;-76
2022/08/27 09:43:07;;;;;;;8.48;2.28;;;;;;;21.72;56.47;101947.38;5070048;28;20028;-77
2022/08/27 09:45:33;;;;;;;6.65;2.40;;;;;;;22.52;55.09;101933.22;5086030;28;20107;-77
2022/08/27 09:48:06;;;;;;;6.18;2.33;;;;;;;22.67;54.03;101941.06;5091187;28;20050;-79
2022/08/27 09:50:52;;;;;;;7.45;2.58;;;;;;;23.01;54.81;101928.84;5094372;28;20028;-79
2022/08/27 09:53:22;;;;;;;9.32;2.40;;;;;;;22.70;54.22;101929.38;5095580;28;20054;-78
2022/08/27 09:55:54;;;;;;;6.32;3.13;;;;;;;22.75;53.06;101932.28;5092093;28;20031;-78
2022/08/27 09:58:23;;;;;;;6.35;2.03;;;;;;;22.40;54.85;101935.19;5086895;28;20024;-78
2022/08/27 10:00:59;;;;;;;5.97;2.28;;;;;;;22.47;54.40;101937.88;5092578;28;20042;-79
2022/08/27 10:03:24;;;;;;;7.82;2.53;;;;;;;22.23;53.40;101936.22;5081297;28;20028;-79
2022/08/27 10:05:50;;;;;;;12.23;2.37;;;;;;;22.06;54.35;101932.50;5088141;28;20077;-79
2022/08/27 10:08:20;;;;;;;3.17;1.85;;;;;;;22.68;52.97;101926.84;5086669;28;20333;-78
2022/08/27 10:10:51;;;;;;;6.70;1.80;;;;;;;22.89;52.33;101930.88;5090208;28;20028;-78
2022/08/27 10:13:22;;;;;;;5.10;2.35;;;;;;;23.29;50.59;101926.88;5078554;28;20064;-79
2022/08/27 10:16:25;;;;;;;6.00;2.13;;;;;;;23.76;49.72;101918.91;5090171;28;20054;-79
2022/08/27 10:19:15;;;;;;;2.95;1.67;;;;;;;23.67;49.68;101924.09;5069018;28;20024;-79
2022/08/27 10:21:59;;;;;;;3.80;1.90;;;;;;;23.98;49.38;101923.47;5086514;28;20398;-79
2022/08/27 10:24:54;;;;;;;8.02;2.08;;;;;;;23.44;50.04;101921.53;5092225;28;20102;-80
2022/08/27 10:27:35;;;;;;;4.65;1.48;;;;;;;22.95;51.90;101932.66;5069500;28;20028;-78
2022/08/27 10:30:03;;;;;;;3.35;1.23;;;;;;;22.76;50.71;101928.38;5094693;28;20020;-79
2022/08/27 10:32:43;;;;;;;5.10;1.60;;;;;;;22.58;51.78;101917.44;5094966;28;20039;-78
2022/08/27 10:35:16;;;;;;;3.67;1.50;;;;;;;23.09;50.96;101922.81;5084646;28;20035;-77
2022/08/27 10:38:01;;;;;;;4.40;1.52;;;;;;;23.34;49.32;101912.97;5092261;28;20685;-79
2022/08/27 10:40:26;;;;;;;5.80;1.40;;;;;;;23.05;50.66;101925.28;5069255;28;20020;-80
2022/08/27 10:43:04;;;;;;;7.50;1.53;;;;;;;22.98;50.67;101932.13;5079182;28;20078;-79
2022/08/27 10:46:03;;;;;;;5.10;1.90;;;;;;;23.15;52.08;101933.03;5093424;28;20039;-79
2022/08/27 10:48:38;;;;;;;4.60;1.42;;;;;;;22.94;51.11;101920.63;5101912;28;20020;-79
2022/08/27 10:51:07;;;;;;;4.30;1.63;;;;;;;23.02;51.94;101922.16;5082432;28;20610;-78
2022/08/27 10:54:00;;;;;;;5.75;1.98;;;;;;;23.19;50.38;101923.03;5099907;28;20049;-79
2022/08/27 10:56:43;;;;;;;2.78;1.50;;;;;;;23.89;48.73;101921.34;5077204;28;20085;-79
2022/08/27 10:59:23;;;;;;;7.43;1.50;;;;;;;23.43;49.28;101925.41;5102892;28;20044;-79
2022/08/27 11:02:01;;;;;;;4.93;1.25;;;;;;;23.02;49.42;101922.16;5101029;28;20103;-79
2022/08/27 11:04:49;;;;;;;1.92;1.20;;;;;;;22.85;51.19;101926.88;5100025;28;20503;-79
2022/08/27 11:07:31;;;;;;;4.32;1.27;;;;;;;23.01;51.41;101926.06;5110703;28;20024;-79
2022/08/27 11:10:27;;;;;;;5.05;1.58;;;;;;;22.95;52.73;101932.66;5072550;28;20376;-77
2022/08/27 11:12:57;;;;;;;4.72;1.58;;;;;;;22.80;52.78;101930.44;5068997;28;20157;-79
2022/08/27 11:15:31;;;;;;;5.35;1.58;;;;;;;22.85;51.54;101929.69;5080416;28;20020;-79
2022/08/27 11:18:14;;;;;;;7.30;1.38;;;;;;;22.74;51.56;101919.41;5089467;28;20062;-78
2022/08/27 11:20:54;;;;;;;7.75;1.67;;;;;;;22.75;51.90;101927.53;5065672;28;20048;-78
2022/08/27 11:23:35;;;;;;;5.85;1.83;;;;;;;22.88;50.88;101916.03;5096117;28;20757;-78
2022/08/27 11:26:02;;;;;;;5.07;1.52;;;;;;;23.15;51.15;101911.47;5088529;28;20024;-79
2022/08/27 11:28:38;;;;;;;10.00;1.60;;;;;;;22.85;50.96;101910.09;5068922;28;20028;-79
2022/08/27 11:31:25;;;;;;;8.85;2.13;;;;;;;22.98;51.45;101912.56;5073875;28;20040;-78
2022/08/27 11:34:02;;;;;;;7.68;1.52;;;;;;;23.10;51.12;101910.56;5088528;28;20383;-78
2022/08/27 11:36:44;;;;;;;4.15;1.20;;;;;;;22.73;51.55;101914.94;5085931;28;20119;-79
2022/08/27 11:39:36;;;;;;;4.18;1.42;;;;;;;22.34;52.72;101911.06;5070137;28;20495;-78
2022/08/27 11:42:11;;;;;;;10.10;1.58;;;;;;;22.22;52.99;101918.63;5069838;28;20031;-78